Time;durP1;ratioP1;P1;durP2;ratioP2;P2;SDS_P1;SDS_P2;PMS_P1;PMS_P2;Temp;Humidity;BMP_temperature;BMP_pressure;BME280_temperature;BME280_humidity;BME280_pressure;Samples;Min_cycle;Max_cycle;Signal;HPM_P1;HPM_P2
2022/10/16 00:01:55;;;;;;;2.60;1.00;;;14.90;99.90;;;;;;5069661;28;20407;-75
2022/10/16 00:04:21;;;;;;;2.45;1.15;;;14.90;99.90;;;;;;5068661;28;20403;-74
2022/10/16 00:06:46;;;;;;;1.50;1.20;;;14.90;99.90;;;;;;5069635;28;20418;-75
2022/10/16 00:09:12;;;;;;;3.47;1.30;;;14.90;99.90;;;;;;5069994;28;20396;-75
2022/10/16 00:11:39;;;;;;;2.78;1.00;;;14.90;99.90;;;;;;5069404;28;20414;-74
2022/10/16 00:14:10;;;;;;;1.70;1.00;;;14.90;99.90;;;;;;5070002;28;20388;-75
2022/10/16 00:16:36;;;;;;;1.70;1.10;;;14.90;99.90;;;;;;5069654;28;20399;-74
2022/10/16 00:19:01;;;;;;;0.90;0.82;;;14.90;99.90;;;;;;5070268;28;20548;-74
2022/10/16 00:21:29;;;;;;;1.70;1.10;;;14.90;99.90;;;;;;5066534;28;20414;-74
2022/10/16 00:23:59;;;;;;;3.45;0.90;;;14.90;99.90;;;;;;5057264;28;20413;-75
2022/10/16 00:26:25;;;;;;;2.30;1.30;;;14.90;99.90;;;;;;5067389;28;20407;-75
2022/10/16 00:28:51;;;;;;;3.63;1.00;;;14.80;99.90;;;;;;5068888;28;20465;-74
2022/10/16 00:31:19;;;;;;;2.20;0.90;;;14.80;99.90;;;;;;5062123;28;20482;-74
2022/10/16 00:33:45;;;;;;;1.50;1.00;;;14.80;99.90;;;;;;5062835;28;20431;-74
2022/10/16 00:36:14;;;;;;;1.37;0.73;;;14.80;99.90;;;;;;5054165;28;20428;-74
2022/10/16 00:38:40;;;;;;;2.60;1.20;;;14.90;99.90;;;;;;5066629;28;20427;-74
2022/10/16 00:41:07;;;;;;;1.30;0.70;;;14.90;99.90;;;;;;5069953;28;20441;-75
2022/10/16 00:43:43;;;;;;;4.00;0.80;;;14.90;99.90;;;;;;5068111;28;20812;-74
2022/10/16 00:46:37;;;;;;;2.80;1.10;;;14.80;99.90;;;;;;5068951;28;20404;-74
2022/10/16 00:49:18;;;;;;;5.63;1.20;;;14.80;99.90;;;;;;5068064;28;20473;-74
2022/10/16 00:51:50;;;;;;;5.75;1.10;;;14.80;99.90;;;;;;5062656;28;20884;-74
2022/10/16 00:54:28;;;;;;;2.70;0.90;;;14.80;99.90;;;;;;5066936;28;20432;-74
2022/10/16 00:56:56;;;;;;;2.35;0.90;;;14.80;99.90;;;;;;5060564;28;20403;-74
2022/10/16 00:59:48;;;;;;;4.47;0.90;;;14.90;99.90;;;;;;5065250;28;20456;-73
2022/10/16 01:02:16;;;;;;;1.20;1.10;;;14.90;99.90;;;;;;5062598;28;20431;-74
2022/10/16 01:04:48;;;;;;;2.58;1.10;;;14.90;99.90;;;;;;5068153;28;20411;-75
2022/10/16 01:07:24;;;;;;;1.20;0.70;;;14.90;99.90;;;;;;5059943;28;20452;-75
2022/10/16 01:10:21;;;;;;;2.33;1.02;;;14.90;99.90;;;;;;5060790;28;20435;-75
2022/10/16 01:12:50;;;;;;;2.60;0.80;;;14.90;99.90;;;;;;5067468;28;20403;-74
2022/10/16 01:15:28;;;;;;;1.65;1.20;;;14.90;99.90;;;;;;5069599;28;20372;-73
2022/10/16 01:18:11;;;;;;;1.67;0.90;;;15.00;99.90;;;;;;5069686;28;20375;-74
2022/10/16 01:20:48;;;;;;;1.80;1.17;;;14.90;99.90;;;;;;5069425;28;20388;-74
2022/10/16 01:24:03;;;;;;;3.20;1.00;;;14.80;99.90;;;;;;5069183;28;20753;-75
2022/10/16 01:26:47;;;;;;;1.10;0.80;;;14.80;99.90;;;;;;5006177;28;20474;-75
2022/10/16 01:29:16;;;;;;;1.30;1.10;;;14.80;99.90;;;;;;5066469;28;20411;-74
2022/10/16 01:31:48;;;;;;;3.38;1.30;;;14.80;99.90;;;;;;5056746;28;20427;-74
2022/10/16 01:34:33;;;;;;;3.10;1.10;;;14.80;99.90;;;;;;5056942;28;20427;-75
2022/10/16 01:37:15;;;;;;;2.85;1.30;;;14.70;99.90;;;;;;5048448;28;20394;-74
2022/10/16 01:39:45;;;;;;;3.00;1.15;;;14.70;99.90;;;;;;5069025;28;20414;-74
2022/10/16 01:42:37;;;;;;;1.35;0.90;;;14.60;99.90;;;;;;5068697;28;20391;-74
2022/10/16 01:45:07;;;;;;;2.47;0.77;;;14.60;99.90;;;;;;5068313;28;20482;-75
2022/10/16 01:47:35;;;;;;;1.63;0.93;;;14.60;99.90;;;;;;5056641;28;20480;-75
2022/10/16 01:50:04;;;;;;;1.40;0.70;;;14.60;99.90;;;;;;5067934;28;20450;-76
2022/10/16 01:52:32;;;;;;;1.30;1.00;;;14.60;99.90;;;;;;5068392;28;20399;-74
2022/10/16 01:54:59;;;;;;;1.40;0.90;;;14.60;99.90;;;;;;5067423;28;20415;-74
2022/10/16 01:57:25;;;;;;;2.30;1.20;;;14.60;99.90;;;;;;5057253;28;20400;-75
2022/10/16 01:59:56;;;;;;;2.22;1.10;;;14.60;99.90;;;;;;5062198;28;20430;-74
2022/10/16 02:02:26;;;;;;;2.72;0.90;;;14.70;99.90;;;;;;5068545;28;20932;-74
2022/10/16 02:05:04;;;;;;;3.10;1.20;;;14.70;99.90;;;;;;5068011;28;20392;-74
2022/10/16 02:07:30;;;;;;;2.75;1.13;;;14.70;99.90;;;;;;5065866;28;20431;-74
2022/10/16 02:09:55;;;;;;;3.80;1.23;;;14.60;99.90;;;;;;5060626;28;20442;-74
2022/10/16 02:12:32;;;;;;;1.10;0.90;;;14.70;99.90;;;;;;5068421;28;20399;-74
2022/10/16 02:14:57;;;;;;;2.67;0.90;;;14.70;99.90;;;;;;5067492;28;20416;-74
2022/10/16 02:17:23;;;;;;;3.37;1.20;;;14.70;99.90;;;;;;5049365;28;20399;-75
2022/10/16 02:19:52;;;;;;;1.75;0.90;;;14.80;99.90;;;;;;5060014;28;20423;-74
2022/10/16 02:22:26;;;;;;;3.42;1.00;;;14.80;99.90;;;;;;5068275;28;20861;-74
2022/10/16 02:24:58;;;;;;;2.10;1.20;;;14.80;99.90;;;;;;5071258;28;20407;-73
2022/10/16 02:27:33;;;;;;;3.83;1.13;;;14.80;99.90;;;;;;5070743;28;20426;-74
2022/10/16 02:30:09;;;;;;;2.42;0.80;;;14.70;99.90;;;;;;5071520;28;20423;-74
2022/10/16 02:32:38;;;;;;;2.78;1.00;;;14.70;99.90;;;;;;5066565;28;20831;-74
2022/10/16 02:35:06;;;;;;;3.70;1.08;;;14.70;99.90;;;;;;5066256;28;20411;-74
2022/10/16 02:37:33;;;;;;;3.25;1.40;;;14.60;99.90;;;;;;5065890;28;20396;-74
2022/10/16 02:39:59;;;;;;;1.77;0.98;;;14.70;99.90;;;;;;5072342;28;20458;-74
2022/10/16 02:42:32;;;;;;;1.52;0.90;;;14.60;99.90;;;;;;5071186;28;20495;-74
2022/10/16 02:44:58;;;;;;;1.30;0.90;;;14.60;99.90;;;;;;5070995;28;20450;-75
2022/10/16 02:47:23;;;;;;;2.67;1.13;;;14.60;99.90;;;;;;5061916;28;20901;-74
2022/10/16 02:49:49;;;;;;;2.20;1.20;;;14.60;99.90;;;;;;5068283;28;20403;-74
2022/10/16 02:52:14;;;;;;;3.10;1.25;;;14.60;99.90;;;;;;5062826;28;20420;-74
2022/10/16 02:54:40;;;;;;;2.37;1.00;;;14.50;99.90;;;;;;5070871;28;20426;-75
2022/10/16 02:57:05;;;;;;;1.97;1.20;;;14.50;99.90;;;;;;5070248;28;20391;-75
2022/10/16 02:59:31;;;;;;;4.18;1.00;;;14.60;99.90;;;;;;5072063;28;20395;-74
2022/10/16 03:01:56;;;;;;;2.88;1.20;;;14.60;99.90;;;;;;5070699;28;20816;-75
2022/10/16 03:04:22;;;;;;;3.37;0.93;;;14.70;99.90;;;;;;5071546;28;20404;-74
2022/10/16 03:06:47;;;;;;;3.42;1.20;;;14.70;99.90;;;;;;5070839;28;20426;-75
2022/10/16 03:09:13;;;;;;;1.00;0.80;;;14.70;99.90;;;;;;5070599;28;20447;-74
2022/10/16 03:11:38;;;;;;;3.23;1.10;;;14.70;99.90;;;;;;5068969;28;20478;-74
2022/10/16 03:14:04;;;;;;;5.17;0.90;;;14.70;99.90;;;;;;5062291;28;20843;-74
2022/10/16 03:16:30;;;;;;;3.90;1.10;;;14.70;99.90;;;;;;5071205;28;20483;-74
2022/10/16 03:18:56;;;;;;;1.90;1.00;;;14.60;99.90;;;;;;5070973;28;20784;-74
2022/10/16 03:21:21;;;;;;;4.20;1.10;;;14.60;99.90;;;;;;5070273;28;20407;-74
2022/10/16 03:23:47;;;;;;;1.83;0.87;;;14.60;99.90;;;;;;5071239;28;20411;-75
2022/10/16 03:26:12;;;;;;;3.77;1.10;;;14.60;99.90;;;;;;5062392;28;20771;-74
2022/10/16 03:28:38;;;;;;;4.70;1.10;;;14.60;99.90;;;;;;5065581;28;20409;-74
2022/10/16 03:31:03;;;;;;;1.87;1.20;;;14.60;99.90;;;;;;5066436;28;20411;-75
2022/10/16 03:33:29;;;;;;;2.93;1.40;;;14.70;99.90;;;;;;5069979;28;20407;-74
2022/10/16 03:35:55;;;;;;;1.60;1.13;;;14.70;99.90;;;;;;5052958;28;20415;-74
2022/10/16 03:38:21;;;;;;;3.22;1.13;;;14.60;99.90;;;;;;5069095;28;20482;-74
2022/10/16 03:40:47;;;;;;;3.40;1.35;;;14.60;99.90;;;;;;5070105;28;20442;-75
2022/10/16 03:43:12;;;;;;;1.17;1.00;;;14.70;99.90;;;;;;5062044;28;20436;-74
2022/10/16 03:45:38;;;;;;;3.25;1.48;;;14.70;99.90;;;;;;5069274;28;20490;-74
2022/10/16 03:48:04;;;;;;;4.20;1.25;;;14.60;99.90;;;;;;5063955;28;20898;-74
2022/10/16 03:50:29;;;;;;;0.97;0.90;;;14.70;99.90;;;;;;5066571;28;20528;-74
2022/10/16 03:52:55;;;;;;;1.70;1.10;;;14.70;99.90;;;;;;5058564;28;20405;-74
2022/10/16 03:55:21;;;;;;;1.30;1.03;;;14.70;99.90;;;;;;5066936;28;20452;-74
2022/10/16 03:57:46;;;;;;;2.42;1.20;;;14.70;99.90;;;;;;5070432;28;20428;-74
2022/10/16 04:00:13;;;;;;;4.45;1.60;;;14.70;99.90;;;;;;5061988;28;20497;-74
2022/10/16 04:02:38;;;;;;;4.60;1.20;;;14.70;99.90;;;;;;5056292;28;20426;-75
2022/10/16 04:05:04;;;;;;;2.53;0.80;;;14.70;99.90;;;;;;5061047;28;20818;-75
2022/10/16 04:07:30;;;;;;;4.50;1.33;;;14.80;99.90;;;;;;5061563;28;20439;-74
2022/10/16 04:09:56;;;;;;;3.60;1.90;;;14.80;99.90;;;;;;5068153;28;20533;-73
2022/10/16 04:12:22;;;;;;;2.00;1.10;;;14.70;99.90;;;;;;5069994;28;20484;-75
2022/10/16 04:14:48;;;;;;;3.30;1.50;;;14.80;99.90;;;;;;5069369;28;20484;-74
2022/10/16 04:17:13;;;;;;;2.20;1.20;;;14.70;99.90;;;;;;5057157;28;20766;-75
2022/10/16 04:19:39;;;;;;;2.00;1.40;;;14.80;99.90;;;;;;5060737;28;20841;-74
2022/10/16 04:22:04;;;;;;;3.45;1.20;;;14.80;99.90;;;;;;5052240;28;20451;-74
2022/10/16 04:24:30;;;;;;;2.53;1.80;;;14.80;99.90;;;;;;5068615;28;20419;-74
2022/10/16 04:26:55;;;;;;;4.90;1.70;;;14.80;99.90;;;;;;5067343;28;20864;-74
2022/10/16 04:29:21;;;;;;;1.80;1.40;;;14.80;99.90;;;;;;5069642;28;20399;-75
2022/10/16 04:31:47;;;;;;;1.10;1.00;;;14.70;99.90;;;;;;5070400;28;20422;-74
2022/10/16 04:34:12;;;;;;;2.00;1.15;;;14.80;99.90;;;;;;5090698;22;20439;-73
2022/10/16 04:36:38;;;;;;;2.60;1.30;;;14.70;99.90;;;;;;5061214;28;20398;-72
2022/10/16 04:39:03;;;;;;;4.40;1.13;;;14.70;99.90;;;;;;5051946;28;20399;-72
2022/10/16 04:41:29;;;;;;;2.70;1.20;;;14.70;99.90;;;;;;5056894;28;20413;-72
2022/10/16 04:43:54;;;;;;;3.00;1.20;;;14.70;99.90;;;;;;5056725;28;20769;-72
2022/10/16 04:46:20;;;;;;;4.83;1.23;;;14.70;99.90;;;;;;5034156;28;20426;-72
2022/10/16 04:48:46;;;;;;;6.40;1.10;;;14.70;99.90;;;;;;5061199;28;20404;-72
2022/10/16 04:51:12;;;;;;;4.30;1.65;;;14.80;99.90;;;;;;5059429;28;20411;-72
2022/10/16 04:53:37;;;;;;;2.27;1.50;;;14.70;99.90;;;;;;5063070;28;20401;-71
2022/10/16 04:56:03;;;;;;;1.67;1.23;;;14.80;99.90;;;;;;5057079;28;20487;-72
2022/10/16 04:58:28;;;;;;;3.80;1.60;;;14.80;99.90;;;;;;5060355;28;20404;-72
2022/10/16 05:00:54;;;;;;;3.20;1.10;;;14.80;99.90;;;;;;5061005;28;20403;-72
2022/10/16 05:03:19;;;;;;;2.30;1.30;;;14.90;99.90;;;;;;5063378;28;20403;-72
2022/10/16 05:05:46;;;;;;;2.30;1.40;;;14.80;99.90;;;;;;5056592;28;20424;-72
2022/10/16 05:08:13;;;;;;;3.92;1.45;;;14.80;99.90;;;;;;5053201;28;20405;-72
2022/10/16 05:10:39;;;;;;;2.38;1.40;;;14.80;99.90;;;;;;5054889;28;20914;-72
2022/10/16 05:13:04;;;;;;;3.03;1.70;;;14.90;99.90;;;;;;5057554;28;20405;-72
2022/10/16 05:15:30;;;;;;;4.05;1.40;;;14.90;99.90;;;;;;5056724;28;20395;-72
2022/10/16 05:17:55;;;;;;;1.98;1.30;;;14.80;99.90;;;;;;5059770;28;20803;-72
2022/10/16 05:20:22;;;;;;;3.20;1.30;;;14.90;99.90;;;;;;5049642;28;20864;-71
2022/10/16 05:22:48;;;;;;;1.77;1.60;;;14.90;99.90;;;;;;5056598;28;20403;-73
2022/10/16 05:25:14;;;;;;;3.55;1.60;;;14.90;99.90;;;;;;5052411;28;20418;-72
2022/10/16 05:27:39;;;;;;;3.00;1.50;;;14.90;99.90;;;;;;5060956;28;20487;-73
2022/10/16 05:30:06;;;;;;;4.10;1.40;;;14.80;99.90;;;;;;5065149;28;20400;-72
2022/10/16 05:32:31;;;;;;;3.50;1.50;;;14.80;99.90;;;;;;5057938;28;20377;-73
2022/10/16 05:34:59;;;;;;;2.20;1.60;;;14.80;99.90;;;;;;5048933;28;20405;-72
2022/10/16 05:37:24;;;;;;;4.40;1.73;;;14.90;99.90;;;;;;5066665;28;20554;-72
2022/10/16 05:39:50;;;;;;;3.47;1.60;;;14.90;99.90;;;;;;5067817;28;20455;-71
2022/10/16 05:42:15;;;;;;;1.77;1.67;;;14.90;99.90;;;;;;5058957;28;20397;-72
2022/10/16 05:44:41;;;;;;;2.43;1.70;;;14.90;99.90;;;;;;5053735;28;20409;-72
2022/10/16 05:47:06;;;;;;;2.60;1.50;;;14.80;99.90;;;;;;5058001;28;20428;-73
2022/10/16 05:49:32;;;;;;;3.20;1.40;;;14.80;99.90;;;;;;5059487;28;20945;-72
2022/10/16 05:51:57;;;;;;;3.03;1.80;;;14.80;99.90;;;;;;5062733;28;20925;-73
2022/10/16 05:54:23;;;;;;;2.90;1.70;;;14.90;99.90;;;;;;5058412;28;20830;-72
2022/10/16 05:56:48;;;;;;;3.53;1.10;;;14.80;99.90;;;;;;5055527;28;20435;-73
2022/10/16 05:59:14;;;;;;;6.20;2.10;;;14.90;99.90;;;;;;5058609;28;20409;-72
2022/10/16 06:01:39;;;;;;;3.95;1.58;;;14.90;99.90;;;;;;5055501;28;20453;-72
2022/10/16 06:04:05;;;;;;;2.70;1.35;;;14.90;99.90;;;;;;5055125;28;20443;-72
2022/10/16 06:06:31;;;;;;;5.00;1.63;;;15.00;99.90;;;;;;5063830;28;20405;-72
2022/10/16 06:08:57;;;;;;;2.50;1.50;;;15.00;99.90;;;;;;5059523;28;20901;-72
2022/10/16 06:11:28;;;;;;;4.40;1.70;;;14.90;99.90;;;;;;5045311;28;20500;-72
2022/10/16 06:13:56;;;;;;;4.90;1.50;;;14.90;99.90;;;;;;5056508;28;20962;-72
2022/10/16 06:16:23;;;;;;;2.72;1.67;;;14.90;99.90;;;;;;5061452;28;20435;-72
2022/10/16 06:18:51;;;;;;;2.47;1.23;;;15.10;99.90;;;;;;5053525;28;20405;-72
2022/10/16 06:21:24;;;;;;;5.07;1.67;;;15.10;99.90;;;;;;5061680;28;20416;-73
2022/10/16 06:23:50;;;;;;;1.60;1.50;;;15.10;99.90;;;;;;5062283;28;20442;-71
2022/10/16 06:26:18;;;;;;;1.70;1.60;;;15.00;99.90;;;;;;5060439;28;20401;-72
2022/10/16 06:28:44;;;;;;;2.60;1.40;;;15.10;99.90;;;;;;5062514;28;20423;-72
2022/10/16 06:31:11;;;;;;;4.63;1.40;;;15.20;99.90;;;;;;5060864;28;20591;-72
2022/10/16 06:33:37;;;;;;;4.43;1.52;;;15.20;99.90;;;;;;5059337;28;20489;-72
2022/10/16 06:36:06;;;;;;;1.75;1.60;;;15.20;99.90;;;;;;5059375;28;20429;-72
2022/10/16 06:38:32;;;;;;;3.40;1.60;;;15.10;99.90;;;;;;5048769;28;20836;-72
2022/10/16 06:40:58;;;;;;;2.97;1.50;;;15.10;99.90;;;;;;5058953;28;20393;-72
2022/10/16 06:43:24;;;;;;;5.68;1.50;;;15.10;99.90;;;;;;5055651;28;20492;-72
2022/10/16 06:45:53;;;;;;;2.00;1.60;;;15.10;99.90;;;;;;5060253;22;20528;-71
2022/10/16 06:48:19;;;;;;;1.90;1.40;;;15.10;99.90;;;;;;5050280;28;20397;-70
2022/10/16 06:51:05;;;;;;;2.40;1.60;;;15.10;99.90;;;;;;5051577;28;21262;-71
2022/10/16 06:53:33;;;;;;;2.85;1.20;;;15.10;99.90;;;;;;5042974;28;20859;-71
2022/10/16 06:56:07;;;;;;;1.88;1.50;;;15.20;99.90;;;;;;5041441;28;20943;-73
2022/10/16 06:58:32;;;;;;;4.70;1.40;;;15.20;99.90;;;;;;5042390;28;20409;-73
2022/10/16 07:00:58;;;;;;;7.40;1.53;;;15.20;99.90;;;;;;5036735;28;20417;-71
2022/10/16 07:03:23;;;;;;;3.00;1.40;;;15.10;99.90;;;;;;5048013;28;20483;-70
2022/10/16 07:05:49;;;;;;;2.60;1.45;;;15.10;99.90;;;;;;5049486;28;20492;-71
2022/10/16 07:08:18;;;;;;;3.08;1.80;;;15.20;99.90;;;;;;5029059;28;20435;-72
2022/10/16 07:10:44;;;;;;;4.80;1.80;;;15.20;99.90;;;;;;5037485;28;20427;-72
2022/10/16 07:13:12;;;;;;;6.83;1.60;;;15.20;99.90;;;;;;5031317;28;20419;-71
2022/10/16 07:15:38;;;;;;;2.15;1.50;;;15.20;99.90;;;;;;5034831;28;20433;-72
2022/10/16 07:18:04;;;;;;;3.10;1.60;;;15.30;99.90;;;;;;5042570;28;20418;-71
2022/10/16 07:20:29;;;;;;;5.60;1.60;;;15.30;99.90;;;;;;5031839;28;20421;-71
2022/10/16 07:22:55;;;;;;;4.07;1.70;;;15.30;99.90;;;;;;5036631;28;20440;-72
2022/10/16 07:25:20;;;;;;;3.47;1.80;;;15.40;99.90;;;;;;5041237;28;20419;-71
2022/10/16 07:27:46;;;;;;;6.70;1.80;;;15.30;99.90;;;;;;5031747;28;20948;-70
2022/10/16 07:30:11;;;;;;;4.80;1.70;;;15.40;99.90;;;;;;5032098;28;20415;-70
2022/10/16 07:32:37;;;;;;;4.20;1.60;;;15.40;99.90;;;;;;5030871;28;20407;-71
2022/10/16 07:35:03;;;;;;;2.90;1.70;;;15.40;99.90;;;;;;5039037;28;20472;-70
2022/10/16 07:37:29;;;;;;;4.80;1.80;;;15.40;99.90;;;;;;5032615;28;20909;-72
2022/10/16 07:39:54;;;;;;;3.35;1.50;;;15.60;99.90;;;;;;5038056;28;20403;-72
2022/10/16 07:42:20;;;;;;;2.17;1.75;;;15.50;99.90;;;;;;5031819;28;20383;-71
2022/10/16 07:44:45;;;;;;;2.40;1.80;;;15.60;99.90;;;;;;5023007;28;20415;-72
2022/10/16 07:47:11;;;;;;;2.60;1.70;;;15.70;99.90;;;;;;5038397;28;20410;-72
2022/10/16 07:49:36;;;;;;;2.00;1.80;;;15.70;99.90;;;;;;5038703;28;20424;-71
2022/10/16 07:52:02;;;;;;;2.00;1.90;;;15.80;99.90;;;;;;5037514;28;20558;-72
2022/10/16 07:54:27;;;;;;;5.07;1.95;;;15.90;99.90;;;;;;5025921;28;20402;-72
2022/10/16 07:56:53;;;;;;;2.65;1.73;;;15.90;99.90;;;;;;5030795;28;20428;-72
2022/10/16 07:59:19;;;;;;;4.20;2.10;;;15.90;99.90;;;;;;5033420;28;20469;-72
2022/10/16 08:01:44;;;;;;;6.00;2.10;;;16.10;99.90;;;;;;5034840;28;20464;-72
2022/10/16 08:04:10;;;;;;;2.38;1.65;;;16.10;99.90;;;;;;5042047;28;20492;-72
2022/10/16 08:06:40;;;;;;;2.20;1.70;;;16.20;99.90;;;;;;5037138;28;20541;-71
2022/10/16 08:09:06;;;;;;;5.80;2.10;;;16.20;99.90;;;;;;5024152;28;20418;-72
2022/10/16 08:11:32;;;;;;;2.78;1.92;;;16.20;99.90;;;;;;5030162;28;20399;-71
2022/10/16 08:13:58;;;;;;;3.07;1.80;;;16.30;99.90;;;;;;5026765;28;20525;-72
2022/10/16 08:16:24;;;;;;;5.50;2.10;;;16.40;99.90;;;;;;5028381;28;20411;-72
2022/10/16 08:18:51;;;;;;;4.30;2.00;;;16.50;99.90;;;;;;5025715;28;20410;-71
2022/10/16 08:21:19;;;;;;;4.15;1.98;;;16.50;99.90;;;;;;5029152;28;20776;-72
2022/10/16 08:23:45;;;;;;;2.75;1.80;;;16.60;99.90;;;;;;5027254;28;20457;-72
2022/10/16 08:26:12;;;;;;;2.90;2.30;;;16.70;99.90;;;;;;5022209;28;20796;-70
2022/10/16 08:28:38;;;;;;;2.63;2.07;;;16.70;99.90;;;;;;5028039;28;20417;-71
2022/10/16 08:31:08;;;;;;;3.10;2.00;;;16.80;99.90;;;;;;5026504;28;20770;-72
2022/10/16 08:33:35;;;;;;;2.00;1.70;;;16.90;99.90;;;;;;5022140;28;20490;-71
2022/10/16 08:36:01;;;;;;;3.10;1.60;;;16.90;99.90;;;;;;5026434;28;20479;-73
2022/10/16 08:38:27;;;;;;;5.20;2.20;;;17.00;99.90;;;;;;5037851;28;20405;-71
2022/10/16 08:41:09;;;;;;;3.13;1.80;;;17.00;99.90;;;;;;5035371;28;20433;-72
2022/10/16 08:44:11;;;;;;;4.10;2.05;;;17.10;99.90;;;;;;5028321;28;20411;-73
2022/10/16 08:47:04;;;;;;;3.50;2.30;;;17.10;99.90;;;;;;5031327;28;20415;-70
2022/10/16 08:49:30;;;;;;;2.22;1.83;;;17.10;99.90;;;;;;5034504;28;20422;-70
2022/10/16 08:51:57;;;;;;;5.88;2.30;;;17.10;99.90;;;;;;5032431;28;20411;-70
2022/10/16 08:54:26;;;;;;;6.30;1.90;;;17.10;99.90;;;;;;5029403;28;20418;-71
2022/10/16 08:56:55;;;;;;;3.50;1.90;;;17.10;99.90;;;;;;5036889;28;20441;-71
2022/10/16 08:59:20;;;;;;;4.10;2.15;;;17.10;99.90;;;;;;5029646;28;20423;-70
2022/10/16 09:01:50;;;;;;;3.70;2.50;;;17.10;99.90;;;;;;5030269;28;20523;-71
2022/10/16 09:04:48;;;;;;;3.08;2.00;;;17.10;99.90;;;;;;5027731;28;20399;-72
2022/10/16 09:07:38;;;;;;;2.85;2.10;;;17.20;99.90;;;;;;5038617;28;20442;-72
2022/10/16 09:10:30;;;;;;;4.70;2.20;;;17.40;99.90;;;;;;5040842;28;20440;-71
2022/10/16 09:13:07;;;;;;;4.78;1.92;;;17.60;99.90;;;;;;5049489;28;20472;-72
2022/10/16 09:15:53;;;;;;;4.78;2.35;;;17.80;99.90;;;;;;5010375;28;20385;-71
2022/10/16 09:19:05;;;;;;;2.93;2.00;;;18.00;99.90;;;;;;5010597;28;20400;-71
2022/10/16 09:21:37;;;;;;;2.80;1.90;;;18.10;99.90;;;;;;4992711;28;20400;-71
2022/10/16 09:24:15;;;;;;;4.72;1.83;;;18.10;99.90;;;;;;5007606;28;20471;-71
2022/10/16 09:26:42;;;;;;;3.40;1.90;;;18.20;99.90;;;;;;5020851;28;20387;-71
2022/10/16 09:29:13;;;;;;;6.77;2.03;;;18.40;99.90;;;;;;5025505;28;20513;-72
2022/10/16 09:31:39;;;;;;;3.00;1.80;;;18.50;99.90;;;;;;5020981;28;20396;-72
2022/10/16 09:34:06;;;;;;;3.38;1.70;;;18.60;99.90;;;;;;5026472;28;20400;-72
2022/10/16 09:36:40;;;;;;;4.07;2.50;;;18.90;99.90;;;;;;5026358;28;20391;-71
2022/10/16 09:39:08;;;;;;;3.13;1.55;;;18.90;99.90;;;;;;5024416;28;20392;-71
2022/10/16 09:41:41;;;;;;;2.42;1.55;;;19.20;99.90;;;;;;5023594;28;20391;-71
2022/10/16 09:44:28;;;;;;;2.00;1.60;;;19.20;99.90;;;;;;5025072;28;20486;-71
2022/10/16 09:47:05;;;;;;;2.17;1.50;;;19.30;99.90;;;;;;5024588;28;20398;-71
2022/10/16 09:49:30;;;;;;;3.50;1.30;;;19.40;99.90;;;;;;5024893;28;20750;-71
2022/10/16 09:52:10;;;;;;;2.90;1.75;;;19.80;99.90;;;;;;5028002;28;20401;-71
2022/10/16 09:54:36;;;;;;;3.33;1.50;;;20.20;99.90;;;;;;5024291;28;20376;-71
2022/10/16 09:57:12;;;;;;;1.90;1.20;;;20.60;99.90;;;;;;5024462;28;20788;-70
2022/10/16 09:59:50;;;;;;;2.25;1.40;;;20.90;99.90;;;;;;5028118;28;20428;-71
2022/10/16 10:02:19;;;;;;;3.45;1.50;;;21.20;99.90;;;;;;5027619;28;20839;-70
2022/10/16 10:04:49;;;;;;;1.30;1.20;;;21.30;99.90;;;;;;5023559;28;20398;-70
2022/10/16 10:07:25;;;;;;;2.50;1.40;;;21.40;99.90;;;;;;5018978;28;20381;-70
2022/10/16 10:09:51;;;;;;;4.03;1.20;;;21.50;99.90;;;;;;5026210;28;20497;-70
2022/10/16 10:12:25;;;;;;;1.85;1.30;;;21.80;99.90;;;;;;5032559;28;20481;-71
2022/10/16 10:14:56;;;;;;;4.20;1.13;;;21.90;99.90;;;;;;5027208;28;20410;-71
2022/10/16 10:17:23;;;;;;;2.70;1.20;;;22.10;99.90;;;;;;5031831;28;20391;-71
2022/10/16 10:19:57;;;;;;;2.10;1.10;;;22.30;99.90;;;;;;5033280;28;20873;-71
2022/10/16 10:22:25;;;;;;;2.55;1.35;;;22.40;99.90;;;;;;5033014;28;20395;-70
2022/10/16 10:25:12;;;;;;;4.03;1.13;;;22.20;99.90;;;;;;5032392;28;20421;-71
2022/10/16 10:28:01;;;;;;;1.80;1.02;;;22.10;99.90;;;;;;5013371;28;20807;-71
2022/10/16 10:30:35;;;;;;;1.98;1.20;;;22.10;99.90;;;;;;5026635;28;20595;-70
2022/10/16 10:33:20;;;;;;;2.60;1.10;;;22.20;99.90;;;;;;5032787;28;20960;-71
2022/10/16 10:35:49;;;;;;;2.47;1.17;;;22.10;99.90;;;;;;5084255;22;20454;-74
2022/10/16 10:38:49;;;;;;;2.47;1.20;;;22.10;99.90;;;;;;5093243;28;20864;-75
2022/10/16 10:41:29;;;;;;;1.70;0.90;;;22.30;99.90;;;;;;5092596;28;20390;-74
2022/10/16 10:44:05;;;;;;;1.35;0.80;;;22.50;99.90;;;;;;5091394;28;20386;-74
2022/10/16 10:46:34;;;;;;;1.48;0.95;;;22.60;99.90;;;;;;5064153;28;20404;-74
2022/10/16 10:49:22;;;;;;;1.65;0.80;;;22.80;96.50;;;;;;5050935;28;20485;-74
2022/10/16 10:52:09;;;;;;;1.23;0.90;;;23.00;92.10;;;;;;5063837;28;20495;-74
2022/10/16 10:55:00;;;;;;;1.30;1.00;;;23.20;91.30;;;;;;5059550;28;20388;-74
2022/10/16 10:57:32;;;;;;;1.15;0.93;;;23.30;90.60;;;;;;5052393;28;20675;-75
2022/10/16 11:00:30;;;;;;;1.20;0.90;;;23.30;91.00;;;;;;5052332;28;20750;-74
2022/10/16 11:03:27;;;;;;;1.60;0.90;;;23.10;91.20;;;;;;5057901;28;20448;-74
2022/10/16 11:05:59;;;;;;;1.85;1.02;;;23.20;89.60;;;;;;5071576;28;20383;-74
2022/10/16 11:08:39;;;;;;;1.15;0.82;;;23.30;91.10;;;;;;5072019;28;20486;-74
2022/10/16 11:11:14;;;;;;;1.40;1.10;;;23.20;90.80;;;;;;5071492;28;20391;-74
2022/10/16 11:13:49;;;;;;;1.38;1.00;;;23.20;90.30;;;;;;5070869;28;20449;-74
2022/10/16 11:16:20;;;;;;;1.00;0.90;;;23.10;90.60;;;;;;5071394;28;20380;-74
2022/10/16 11:18:57;;;;;;;1.60;1.00;;;23.20;88.10;;;;;;5072029;28;20388;-75
2022/10/16 11:21:26;;;;;;;1.20;0.90;;;23.30;90.30;;;;;;5071894;28;20388;-75
2022/10/16 11:24:00;;;;;;;1.58;1.10;;;23.30;88.70;;;;;;5071674;28;20403;-75
2022/10/16 11:26:34;;;;;;;1.05;0.80;;;23.40;87.70;;;;;;5071445;28;20419;-74
2022/10/16 11:29:03;;;;;;;1.80;1.20;;;23.40;84.70;;;;;;5071323;28;20407;-75
2022/10/16 11:31:43;;;;;;;1.90;0.82;;;23.50;89.10;;;;;;5071697;28;20396;-75
2022/10/16 11:34:37;;;;;;;1.30;0.90;;;23.60;84.30;;;;;;5071056;28;20387;-75
2022/10/16 11:37:26;;;;;;;1.50;1.10;;;23.60;82.50;;;;;;5071648;28;21030;-74
2022/10/16 11:39:57;;;;;;;1.20;1.10;;;23.50;84.40;;;;;;5071838;28;20380;-74
2022/10/16 11:42:30;;;;;;;2.47;1.40;;;23.70;85.90;;;;;;5070986;28;20402;-74
2022/10/16 11:45:32;;;;;;;2.60;1.10;;;23.60;83.50;;;;;;5071307;28;20742;-75
2022/10/16 11:48:22;;;;;;;2.00;1.20;;;24.30;83.00;;;;;;5045439;28;20399;-75
2022/10/16 11:50:56;;;;;;;1.25;1.05;;;25.10;78.60;;;;;;5071311;28;20461;-75
2022/10/16 11:53:41;;;;;;;2.10;1.00;;;25.70;75.90;;;;;;5070943;28;20886;-75
2022/10/16 11:56:06;;;;;;;1.88;1.00;;;26.30;74.50;;;;;;5070585;28;20387;-74
2022/10/16 11:58:46;;;;;;;1.60;1.10;;;26.50;68.80;;;;;;5070566;28;20422;-74
2022/10/16 12:01:38;;;;;;;1.85;1.10;;;27.10;68.10;;;;;;5071135;28;20470;-74
2022/10/16 12:04:27;;;;;;;1.20;1.00;;;26.30;67.50;;;;;;5052840;28;20376;-74
2022/10/16 12:07:28;;;;;;;1.40;1.00;;;27.20;68.50;;;;;;5052590;28;20387;-74
2022/10/16 12:09:55;;;;;;;1.15;0.77;;;27.40;67.00;;;;;;5068284;28;20411;-74
2022/10/16 12:12:28;;;;;;;1.13;1.00;;;27.60;63.90;;;;;;5070943;28;20456;-74
2022/10/16 12:15:01;;;;;;;3.20;0.85;;;27.00;66.90;;;;;;5070806;28;20395;-74
2022/10/16 12:17:35;;;;;;;1.20;1.00;;;26.90;68.30;;;;;;5070766;28;20900;-75
2022/10/16 12:20:23;;;;;;;1.77;1.00;;;26.50;76.50;;;;;;5070866;28;20404;-74
2022/10/16 12:22:54;;;;;;;1.20;1.10;;;26.20;71.20;;;;;;5068483;28;20403;-75
2022/10/16 12:25:33;;;;;;;1.85;1.13;;;25.50;70.90;;;;;;5070637;28;20391;-74
2022/10/16 12:28:03;;;;;;;1.27;1.17;;;25.30;73.80;;;;;;5070318;28;20474;-74
2022/10/16 12:30:32;;;;;;;1.57;1.10;;;25.00;74.60;;;;;;5070495;28;20400;-75
2022/10/16 12:33:01;;;;;;;1.42;1.00;;;25.00;74.80;;;;;;5069929;28;20411;-74
2022/10/16 12:35:31;;;;;;;0.90;0.90;;;24.70;76.80;;;;;;5070481;28;20746;-74
2022/10/16 12:38:13;;;;;;;1.30;1.20;;;24.70;80.10;;;;;;5070521;28;20384;-75
2022/10/16 12:40:39;;;;;;;1.20;1.10;;;24.90;81.80;;;;;;5052127;28;20427;-75
2022/10/16 12:43:24;;;;;;;1.33;0.90;;;25.20;79.50;;;;;;5070190;28;20490;-75
2022/10/16 12:46:03;;;;;;;1.55;1.10;;;25.20;76.50;;;;;;5070171;28;20446;-75
2022/10/16 12:48:30;;;;;;;1.90;1.10;;;25.10;78.30;;;;;;5070288;28;20490;-75
2022/10/16 12:50:56;;;;;;;1.13;1.00;;;25.20;76.80;;;;;;5070422;28;20433;-75
2022/10/16 12:53:26;;;;;;;1.10;1.00;;;25.30;81.00;;;;;;5069833;28;20788;-74
2022/10/16 12:56:04;;;;;;;1.30;1.10;;;25.20;76.70;;;;;;5051603;28;20770;-74
2022/10/16 12:58:53;;;;;;;3.33;1.08;;;25.10;77.20;;;;;;5069762;28;20475;-74
2022/10/16 13:01:21;;;;;;;1.60;1.17;;;25.10;81.30;;;;;;5048125;28;20487;-74
2022/10/16 13:03:54;;;;;;;1.73;1.20;;;25.00;78.90;;;;;;5069872;28;20384;-75
2022/10/16 13:06:53;;;;;;;3.00;1.30;;;25.20;80.60;;;;;;5070065;28;20379;-75
2022/10/16 13:09:55;;;;;;;3.33;1.30;;;25.40;74.70;;;;;;5068806;28;20410;-75